Time;durP1;ratioP1;P1;durP2;ratioP2;P2;SDS_P1;SDS_P2;PMS_P1;PMS_P2;Temp;Humidity;BMP_temperature;BMP_pressure;BME280_temperature;BME280_humidity;BME280_pressure;Samples;Min_cycle;Max_cycle;Signal;HPM_P1;HPM_P2
2021/01/15 00:00:58;;;;;;;19.95;10.40;;;0.70;86.40;;;;;;5097749;28;20050;-84
2021/01/15 00:03:24;;;;;;;15.18;9.38;;;0.70;86.00;;;;;;5092522;27;20042;-85
2021/01/15 00:05:49;;;;;;;16.60;10.20;;;0.70;86.10;;;;;;5114773;27;20020;-84
2021/01/15 00:08:15;;;;;;;20.40;11.77;;;0.70;86.30;;;;;;5097891;28;20027;-84
2021/01/15 00:10:41;;;;;;;19.83;11.52;;;0.70;86.60;;;;;;5097796;28;20020;-84
2021/01/15 00:13:06;;;;;;;21.95;13.15;;;0.70;86.70;;;;;;5064310;28;20388;-84
2021/01/15 00:15:32;;;;;;;23.42;13.90;;;0.70;87.00;;;;;;5096970;27;20023;-77
2021/01/15 00:17:58;;;;;;;19.27;12.00;;;0.70;87.00;;;;;;5089647;28;20031;-77
2021/01/15 00:20:26;;;;;;;18.75;11.82;;;0.70;87.10;;;;;;5095096;27;20471;-77
2021/01/15 00:22:51;;;;;;;21.25;12.55;;;0.70;87.20;;;;;;5099726;27;20028;-77
2021/01/15 00:25:17;;;;;;;18.95;12.77;;;0.70;87.20;;;;;;5115024;27;20115;-77
2021/01/15 00:27:43;;;;;;;21.38;12.50;;;0.60;87.20;;;;;;5129385;27;20404;-77
2021/01/15 00:30:10;;;;;;;20.20;12.40;;;0.60;87.40;;;;;;5096670;28;20088;-77
2021/01/15 00:32:36;;;;;;;19.08;13.02;;;0.60;87.50;;;;;;5096463;28;20092;-77
2021/01/15 00:35:04;;;;;;;22.95;14.05;;;0.60;87.50;;;;;;5116472;27;20027;-77
2021/01/15 00:37:29;;;;;;;23.20;13.85;;;0.60;87.70;;;;;;5099891;27;20023;-77
2021/01/15 00:39:55;;;;;;;22.77;14.25;;;0.60;87.80;;;;;;5116958;27;20080;-77
2021/01/15 00:42:21;;;;;;;22.70;14.13;;;0.60;88.00;;;;;;5079166;28;20024;-77
2021/01/15 00:44:46;;;;;;;26.60;14.60;;;0.50;88.10;;;;;;5079126;28;20079;-77
2021/01/15 00:47:12;;;;;;;24.30;14.57;;;0.50;88.20;;;;;;5128357;27;20031;-77
2021/01/15 00:49:38;;;;;;;25.73;15.52;;;0.50;88.30;;;;;;5099383;27;20022;-77
2021/01/15 00:52:04;;;;;;;21.65;14.27;;;0.50;88.30;;;;;;5103534;28;20016;-77
2021/01/15 00:54:29;;;;;;;27.20;15.13;;;0.50;88.40;;;;;;5114353;28;20426;-82
2021/01/15 00:56:59;;;;;;;26.55;14.55;;;0.50;89.20;;;;;;5096249;28;20103;-81
2021/01/15 00:59:24;;;;;;;;;;;0.50;88.60;;;;;;5111764;27;20536;-81
2021/01/15 01:01:50;;;;;;;23.38;13.30;;;0.40;88.50;;;;;;5099177;27;19908;-81
2021/01/15 01:04:16;;;;;;;24.00;14.43;;;0.40;88.60;;;;;;5099524;27;20059;-82
2021/01/15 01:06:41;;;;;;;21.25;13.50;;;0.40;88.60;;;;;;5068351;28;20036;-81
2021/01/15 01:09:07;;;;;;;19.33;12.48;;;0.40;88.70;;;;;;5095285;28;20020;-82
2021/01/15 01:11:33;;;;;;;23.77;14.13;;;0.40;88.80;;;;;;5105306;27;20031;-82
2021/01/15 01:14:00;;;;;;;23.95;13.85;;;0.40;88.90;;;;;;5094917;28;20074;-82
2021/01/15 01:16:26;;;;;;;20.88;13.00;;;0.40;88.90;;;;;;5095728;28;20051;-82
2021/01/15 01:18:53;;;;;;;20.15;13.05;;;0.40;88.90;;;;;;5095760;28;20038;-82
2021/01/15 01:21:19;;;;;;;21.80;14.18;;;0.40;88.90;;;;;;5095601;28;20047;-81
2021/01/15 01:23:46;;;;;;;24.98;14.63;;;0.40;88.90;;;;;;5113802;28;20030;-82
2021/01/15 01:26:12;;;;;;;26.15;14.40;;;0.40;88.90;;;;;;5101668;28;20027;-82
2021/01/15 01:28:39;;;;;;;23.77;14.68;;;0.40;88.90;;;;;;5112437;28;20123;-82
2021/01/15 01:31:05;;;;;;;23.17;13.68;;;0.40;88.90;;;;;;5110790;28;20032;-81
2021/01/15 01:33:31;;;;;;;24.83;13.35;;;0.40;88.90;;;;;;5078846;28;20381;-81
2021/01/15 01:35:57;;;;;;;26.30;14.60;;;0.40;88.90;;;;;;5078499;28;20535;-81
2021/01/15 01:38:22;;;;;;;24.08;13.77;;;0.40;88.90;;;;;;5078176;28;20034;-81
2021/01/15 01:40:48;;;;;;;22.38;13.63;;;0.30;89.50;;;;;;5078503;28;20088;-81
2021/01/15 01:43:14;;;;;;;20.40;13.23;;;0.30;89.00;;;;;;5113646;28;20024;-81
2021/01/15 01:45:40;;;;;;;21.58;13.15;;;0.40;89.10;;;;;;5078478;28;20020;-82
2021/01/15 01:48:06;;;;;;;20.73;13.50;;;0.30;89.00;;;;;;5112288;28;20031;-82
2021/01/15 01:50:33;;;;;;;22.70;13.13;;;0.30;89.00;;;;;;5079287;28;20024;-81
2021/01/15 01:53:00;;;;;;;23.15;12.82;;;0.30;89.00;;;;;;5075396;28;20539;-81
2021/01/15 01:55:27;;;;;;;17.98;11.57;;;0.30;89.10;;;;;;5092003;28;20081;-81
2021/01/15 01:57:53;;;;;;;18.80;13.07;;;0.30;89.10;;;;;;5093177;28;20027;-81
2021/01/15 02:00:19;;;;;;;18.05;11.93;;;0.30;89.10;;;;;;5106978;28;20043;-81
2021/01/15 02:02:44;;;;;;;23.58;13.68;;;0.30;89.20;;;;;;5096586;28;20038;-78
2021/01/15 02:05:11;;;;;;;18.33;12.07;;;0.30;89.20;;;;;;5078201;28;20529;-77
2021/01/15 02:07:36;;;;;;;20.38;13.00;;;0.30;89.20;;;;;;5113264;28;20034;-77
2021/01/15 02:10:32;;;;;;;19.40;12.50;;;0.20;89.30;;;;;;5113274;28;20027;-77
2021/01/15 02:13:16;;;;;;;18.58;11.48;;;0.30;89.40;;;;;;5077933;28;20096;-77
2021/01/15 02:15:58;;;;;;;19.52;12.18;;;0.20;89.30;;;;;;5112892;28;20058;-77
2021/01/15 02:18:23;;;;;;;19.30;12.38;;;0.30;89.40;;;;;;5112743;28;20023;-77
2021/01/15 02:21:19;;;;;;;17.80;11.52;;;0.30;89.30;;;;;;5093945;28;20024;-77
2021/01/15 02:23:46;;;;;;;20.42;11.77;;;0.20;89.30;;;;;;5113181;28;20052;-78
2021/01/15 02:26:21;;;;;;;20.55;11.95;;;0.20;89.20;;;;;;5113104;28;20052;-77
2021/01/15 02:28:58;;;;;;;19.23;12.10;;;0.30;89.20;;;;;;5112398;28;20032;-81
2021/01/15 02:31:46;;;;;;;20.48;12.55;;;0.20;89.20;;;;;;5074783;28;20020;-81
2021/01/15 02:34:29;;;;;;;20.08;12.68;;;0.20;89.20;;;;;;5092827;28;20024;-81
2021/01/15 02:37:14;;;;;;;21.52;12.52;;;0.30;89.20;;;;;;5086305;28;20032;-81
2021/01/15 02:40:02;;;;;;;19.17;12.18;;;0.20;89.10;;;;;;5092704;28;20102;-81
2021/01/15 02:42:38;;;;;;;18.17;11.48;;;0.10;89.10;;;;;;5104331;28;20097;-81
2021/01/15 02:45:08;;;;;;;19.17;11.80;;;0.10;89.00;;;;;;5113077;28;20024;-82
2021/01/15 02:47:46;;;;;;;17.77;11.27;;;0.10;89.10;;;;;;5113404;28;20103;-81
2021/01/15 02:50:12;;;;;;;19.75;11.73;;;0.10;89.10;;;;;;5113987;28;20020;-81
2021/01/15 02:52:41;;;;;;;18.42;10.82;;;0.20;89.10;;;;;;5114006;28;20024;-81
2021/01/15 02:55:07;;;;;;;18.80;11.02;;;0.20;89.10;;;;;;5098342;28;20028;-81
2021/01/15 02:57:33;;;;;;;20.13;11.38;;;0.20;88.80;;;;;;5116479;28;20031;-81
2021/01/15 02:59:58;;;;;;;18.40;11.30;;;0.20;88.70;;;;;;5098376;28;20038;-81
2021/01/15 03:02:51;;;;;;;19.67;11.98;;;0.20;88.60;;;;;;5078173;28;20024;-81
2021/01/15 03:05:28;;;;;;;15.65;10.90;;;0.20;88.50;;;;;;5070603;28;20131;-81
2021/01/15 03:07:59;;;;;;;15.82;9.85;;;0.20;88.50;;;;;;5095059;28;20455;-81
2021/01/15 03:10:26;;;;;;;19.05;11.70;;;0.20;88.40;;;;;;5090120;28;20020;-81
2021/01/15 03:12:54;;;;;;;18.58;11.30;;;0.20;88.20;;;;;;5115897;28;20077;-82
2021/01/15 03:15:22;;;;;;;17.00;10.60;;;0.20;88.10;;;;;;5116246;28;20024;-81
2021/01/15 03:17:50;;;;;;;23.80;10.90;;;0.20;88.00;;;;;;5106232;28;20020;-81
2021/01/15 03:20:16;;;;;;;15.93;10.30;;;0.20;88.10;;;;;;5100304;28;20035;-81
2021/01/15 03:22:46;;;;;;;21.65;11.90;;;0.30;88.10;;;;;;5098082;28;20027;-81
2021/01/15 03:25:16;;;;;;;16.95;10.57;;;0.30;88.00;;;;;;5098412;28;20028;-81
2021/01/15 03:27:45;;;;;;;15.68;10.60;;;0.30;87.70;;;;;;5115888;28;20559;-81
2021/01/15 03:30:12;;;;;;;18.50;10.52;;;0.30;87.80;;;;;;5097522;28;20028;-82
2021/01/15 03:32:39;;;;;;;16.02;10.85;;;0.30;87.70;;;;;;5080311;28;20488;-77
2021/01/15 03:35:06;;;;;;;17.48;10.13;;;0.30;88.20;;;;;;5097507;28;20023;-77
2021/01/15 03:37:33;;;;;;;14.25;9.52;;;0.30;87.60;;;;;;5097467;28;20023;-77
2021/01/15 03:39:58;;;;;;;13.50;9.00;;;0.30;87.60;;;;;;5101847;28;20020;-77
2021/01/15 03:42:24;;;;;;;18.75;9.75;;;0.40;87.50;;;;;;5100816;28;20110;-77
2021/01/15 03:44:50;;;;;;;15.07;10.23;;;0.40;87.40;;;;;;5108037;28;20039;-77
2021/01/15 03:47:15;;;;;;;16.52;11.02;;;0.40;87.40;;;;;;5085580;28;20035;-77
2021/01/15 03:49:41;;;;;;;18.10;11.05;;;0.50;87.20;;;;;;5115111;28;20380;-77
2021/01/15 03:52:10;;;;;;;13.82;9.43;;;0.50;87.00;;;;;;5114357;28;20054;-77
2021/01/15 03:54:36;;;;;;;14.80;10.65;;;0.50;87.00;;;;;;5103943;28;20040;-77
2021/01/15 03:57:02;;;;;;;17.70;10.80;;;0.50;87.00;;;;;;5079617;28;20065;-77
2021/01/15 03:59:27;;;;;;;18.38;9.90;;;0.50;86.90;;;;;;5080140;28;20488;-77
2021/01/15 04:01:53;;;;;;;18.13;10.23;;;0.50;86.90;;;;;;5096830;28;20549;-77
2021/01/15 04:04:18;;;;;;;14.85;9.50;;;0.60;86.90;;;;;;5097263;28;20031;-84
2021/01/15 04:06:44;;;;;;;17.27;10.38;;;0.60;86.90;;;;;;5080944;28;20020;-85
2021/01/15 04:09:10;;;;;;;18.58;10.95;;;0.60;86.90;;;;;;5060900;28;20480;-85
2021/01/15 04:11:35;;;;;;;16.67;10.68;;;0.60;86.90;;;;;;5077422;28;20063;-84
2021/01/15 04:14:01;;;;;;;18.33;10.82;;;0.70;86.90;;;;;;5084883;28;20019;-84
2021/01/15 04:16:26;;;;;;;16.38;10.30;;;0.70;86.90;;;;;;5114276;28;20592;-78
2021/01/15 04:18:52;;;;;;;18.77;11.07;;;0.70;86.80;;;;;;5097012;28;20038;-77
2021/01/15 04:21:18;;;;;;;17.40;11.05;;;0.70;86.80;;;;;;5079569;28;20035;-78
2021/01/15 04:23:46;;;;;;;17.55;11.23;;;0.80;86.90;;;;;;5096719;28;20392;-77
2021/01/15 04:26:21;;;;;;;18.33;11.23;;;0.80;86.90;;;;;;5114733;28;20015;-77
2021/01/15 04:28:49;;;;;;;17.95;11.10;;;0.80;87.00;;;;;;5133689;27;20723;-77
2021/01/15 04:31:17;;;;;;;16.15;11.07;;;0.80;87.10;;;;;;5117437;27;20023;-77
2021/01/15 04:33:42;;;;;;;23.00;12.00;;;0.80;87.20;;;;;;5135281;27;20024;-78
2021/01/15 04:36:11;;;;;;;16.95;10.60;;;0.90;87.30;;;;;;5134155;27;20030;-77
2021/01/15 04:38:39;;;;;;;18.50;12.20;;;0.90;87.30;;;;;;5134494;27;20031;-77
2021/01/15 04:41:05;;;;;;;19.05;13.02;;;0.90;87.40;;;;;;5121103;27;20046;-77
2021/01/15 04:43:33;;;;;;;17.70;11.20;;;0.90;87.50;;;;;;5099656;27;20043;-78
2021/01/15 04:46:04;;;;;;;20.77;11.82;;;1.00;87.70;;;;;;5117254;27;20379;-84
2021/01/15 04:48:32;;;;;;;20.85;12.50;;;1.00;87.70;;;;;;5117157;27;20019;-84
2021/01/15 04:50:59;;;;;;;16.42;12.25;;;1.00;87.70;;;;;;5112735;28;20019;-85
2021/01/15 04:53:27;;;;;;;17.52;11.02;;;1.00;87.80;;;;;;5114864;28;20028;-85
2021/01/15 04:56:03;;;;;;;20.67;12.40;;;1.00;87.80;;;;;;5097014;28;20092;-85
2021/01/15 04:58:33;;;;;;;19.20;11.40;;;1.00;87.90;;;;;;5080078;28;20027;-85
2021/01/15 05:00:59;;;;;;;20.17;11.82;;;1.00;87.90;;;;;;5097749;28;20153;-85
2021/01/15 05:03:26;;;;;;;23.05;13.52;;;1.00;88.00;;;;;;5096885;28;20023;-85
2021/01/15 05:06:06;;;;;;;23.40;13.32;;;1.00;88.10;;;;;;5107251;27;20031;-85
2021/01/15 05:08:35;;;;;;;19.02;12.30;;;1.00;88.20;;;;;;5108156;28;20430;-84
2021/01/15 05:11:03;;;;;;;22.00;13.15;;;1.00;88.20;;;;;;5096721;28;20023;-85
2021/01/15 05:13:35;;;;;;;18.15;12.57;;;1.00;88.20;;;;;;5114545;27;20042;-85
2021/01/15 05:16:02;;;;;;;25.50;13.20;;;1.10;89.10;;;;;;5117039;27;20199;-84
2021/01/15 05:18:31;;;;;;;18.67;12.75;;;1.10;89.10;;;;;;5116499;27;20049;-85
2021/01/15 05:20:57;;;;;;;;;;;1.10;88.50;;;;;;5135592;27;20494;-85
2021/01/15 05:23:24;;;;;;;23.08;12.43;;;1.10;88.50;;;;;;5116444;27;19907;-85
2021/01/15 05:25:49;;;;;;;17.08;11.50;;;1.10;89.20;;;;;;5107242;28;20054;-85
2021/01/15 05:28:16;;;;;;;21.38;12.23;;;1.10;88.60;;;;;;5092862;28;20067;-84
2021/01/15 05:30:42;;;;;;;20.33;12.18;;;1.10;88.70;;;;;;5099801;27;20051;-85
2021/01/15 05:33:13;;;;;;;20.50;13.73;;;1.10;88.70;;;;;;5112278;28;20031;-85
2021/01/15 05:35:51;;;;;;;22.83;13.35;;;1.10;88.80;;;;;;5114560;28;20019;-85
2021/01/15 05:38:19;;;;;;;22.00;13.43;;;1.10;88.90;;;;;;5106945;28;20024;-85
2021/01/15 05:40:49;;;;;;;19.20;12.65;;;1.10;88.80;;;;;;5076169;28;20028;-84
2021/01/15 05:43:33;;;;;;;25.00;14.20;;;1.10;89.00;;;;;;5075947;28;20048;-85
2021/01/15 05:46:20;;;;;;;19.67;12.85;;;1.10;89.20;;;;;;5119911;27;20027;-85
2021/01/15 05:48:50;;;;;;;22.10;13.23;;;1.20;89.20;;;;;;5114641;28;20092;-85
2021/01/15 05:51:30;;;;;;;22.40;12.63;;;1.10;89.20;;;;;;5114940;28;20024;-84
2021/01/15 05:53:57;;;;;;;22.65;14.38;;;1.20;89.30;;;;;;5089519;28;20555;-84
2021/01/15 05:56:24;;;;;;;18.55;12.75;;;1.10;89.50;;;;;;5107272;28;20067;-84
2021/01/15 05:59:06;;;;;;;21.40;13.15;;;1.10;89.60;;;;;;5114279;28;20030;-85
2021/01/15 06:01:53;;;;;;;20.23;12.98;;;1.10;89.70;;;;;;5101765;27;20024;-85
2021/01/15 06:04:31;;;;;;;19.90;12.88;;;1.10;89.80;;;;;;5075892;28;20020;-85
2021/01/15 06:06:58;;;;;;;22.23;13.07;;;1.10;89.80;;;;;;5101255;28;20013;-85
2021/01/15 06:09:24;;;;;;;20.52;13.63;;;1.10;89.80;;;;;;5078202;28;20024;-85
2021/01/15 06:11:51;;;;;;;21.33;13.25;;;1.20;89.80;;;;;;5079264;28;20035;-85
2021/01/15 06:14:26;;;;;;;19.00;11.98;;;1.20;89.90;;;;;;5095991;28;20023;-85
2021/01/15 06:17:05;;;;;;;20.73;13.45;;;1.20;89.90;;;;;;5093329;28;20040;-84
2021/01/15 06:19:44;;;;;;;21.08;13.63;;;1.20;90.00;;;;;;5080485;28;20506;-85
2021/01/15 06:22:26;;;;;;;;;;;1.20;90.00;;;;;;5101546;28;20503;-84
2021/01/15 06:25:06;;;;;;;20.90;13.55;;;1.20;90.00;;;;;;5096887;28;19908;-85
2021/01/15 06:27:56;;;;;;;22.58;13.88;;;1.10;90.00;;;;;;5097573;28;20020;-85
2021/01/15 06:30:26;;;;;;;24.13;14.48;;;1.20;90.10;;;;;;5091927;28;20042;-85
2021/01/15 06:32:53;;;;;;;26.08;13.80;;;1.10;90.00;;;;;;5117944;28;20040;-85
2021/01/15 06:35:33;;;;;;;21.15;14.32;;;1.10;90.10;;;;;;5082764;28;20048;-85
2021/01/15 06:38:10;;;;;;;23.52;14.50;;;1.10;90.20;;;;;;5099366;28;20073;-84
2021/01/15 06:40:47;;;;;;;24.20;14.73;;;1.10;90.20;;;;;;5116374;28;20059;-84
2021/01/15 06:43:19;;;;;;;24.05;15.18;;;1.10;90.20;;;;;;5116400;28;20019;-84
2021/01/15 06:45:50;;;;;;;27.35;15.77;;;1.10;90.30;;;;;;5116174;28;20023;-84
2021/01/15 06:48:18;;;;;;;22.83;13.88;;;1.20;90.30;;;;;;5116136;28;20062;-84
2021/01/15 06:50:46;;;;;;;23.00;14.55;;;1.20;90.30;;;;;;5117471;28;20015;-84
2021/01/15 06:53:23;;;;;;;23.95;15.52;;;1.20;90.30;;;;;;5099361;28;20030;-84
2021/01/15 06:56:00;;;;;;;24.75;15.32;;;1.20;90.30;;;;;;5099173;28;20069;-84
2021/01/15 06:58:29;;;;;;;24.52;15.80;;;1.20;90.40;;;;;;5116863;28;20114;-81
2021/01/15 07:01:21;;;;;;;25.38;15.23;;;1.20;90.40;;;;;;5097918;28;20095;-81
2021/01/15 07:04:01;;;;;;;24.05;15.13;;;1.20;90.40;;;;;;5116196;28;20031;-81
2021/01/15 07:06:31;;;;;;;19.65;13.23;;;1.20;90.30;;;;;;5114640;28;20111;-81
2021/01/15 07:08:57;;;;;;;;;;;1.20;90.30;;;;;;5116336;28;20391;-80
2021/01/15 07:11:26;;;;;;;26.50;15.85;;;1.20;90.30;;;;;;5115789;28;19907;-80
2021/01/15 07:14:10;;;;;;;31.70;18.33;;;1.20;90.30;;;;;;5115930;28;20100;-80
2021/01/15 07:16:37;;;;;;;31.63;17.95;;;1.20;90.50;;;;;;5116015;28;20114;-80
2021/01/15 07:19:06;;;;;;;31.05;17.88;;;1.20;90.50;;;;;;5116318;28;20492;-80
2021/01/15 07:21:36;;;;;;;31.20;19.15;;;1.20;90.50;;;;;;5118093;28;20030;-80
2021/01/15 07:24:09;;;;;;;27.65;17.23;;;1.20;90.60;;;;;;5084861;28;20125;-80
2021/01/15 07:26:42;;;;;;;31.48;17.85;;;1.20;90.60;;;;;;5104098;28;20038;-80
2021/01/15 07:29:13;;;;;;;30.75;18.33;;;1.20;90.60;;;;;;5108954;28;20689;-80
2021/01/15 07:31:40;;;;;;;25.83;17.35;;;1.20;90.60;;;;;;5077686;28;20035;-80
2021/01/15 07:34:12;;;;;;;28.10;17.70;;;1.20;90.60;;;;;;5077957;28;20464;-80
2021/01/15 07:36:39;;;;;;;30.98;18.95;;;1.20;90.60;;;;;;5076640;28;20091;-77
2021/01/15 07:39:22;;;;;;;31.50;19.70;;;1.20;90.70;;;;;;5077319;28;20131;-76
2021/01/15 07:41:52;;;;;;;31.90;18.02;;;1.20;90.70;;;;;;5095663;28;20032;-77
2021/01/15 07:44:21;;;;;;;30.55;19.30;;;1.20;90.70;;;;;;5086860;28;20050;-76
2021/01/15 07:46:51;;;;;;;30.73;19.52;;;1.20;90.80;;;;;;5105378;28;20111;-77
2021/01/15 07:49:16;;;;;;;30.50;19.27;;;1.20;90.80;;;;;;5060462;28;21708;-76
2021/01/15 07:51:42;;;;;;;29.90;19.48;;;1.20;90.80;;;;;;5093802;28;20028;-76
2021/01/15 07:54:08;;;;;;;28.05;17.75;;;1.20;90.80;;;;;;5040415;28;20451;-76
2021/01/15 07:56:34;;;;;;;28.00;18.65;;;1.30;90.80;;;;;;5058840;28;20032;-76
2021/01/15 07:59:00;;;;;;;30.92;18.67;;;1.30;90.80;;;;;;5076138;28;20082;-76
2021/01/15 08:01:25;;;;;;;29.48;18.35;;;1.30;90.80;;;;;;5094848;28;20040;-76
2021/01/15 08:03:54;;;;;;;29.70;18.67;;;1.30;90.80;;;;;;5076924;28;20035;-77
2021/01/15 08:06:21;;;;;;;38.22;21.48;;;1.30;90.80;;;;;;5076952;28;20020;-77
2021/01/15 08:08:59;;;;;;;30.30;19.20;;;1.30;90.80;;;;;;5107697;28;20851;-77
2021/01/15 08:11:25;;;;;;;30.60;19.65;;;1.30;90.80;;;;;;5089854;28;20054;-82
2021/01/15 08:14:14;;;;;;;30.83;20.10;;;1.30;90.70;;;;;;5094834;28;20425;-81
2021/01/15 08:16:44;;;;;;;29.88;18.92;;;1.30;90.80;;;;;;5077589;28;20036;-82
2021/01/15 08:19:12;;;;;;;28.65;17.83;;;1.40;90.80;;;;;;5076698;28;20032;-81
2021/01/15 08:21:41;;;;;;;31.15;18.90;;;1.40;90.70;;;;;;5060212;28;20500;-81
2021/01/15 08:24:07;;;;;;;34.42;18.00;;;1.40;90.70;;;;;;5089301;28;20031;-82
2021/01/15 08:26:52;;;;;;;28.77;18.20;;;1.40;90.70;;;;;;5088042;28;20025;-82
2021/01/15 08:29:21;;;;;;;38.95;20.88;;;1.40;90.70;;;;;;5069623;28;20130;-82
2021/01/15 08:31:48;;;;;;;30.73;18.33;;;1.40;90.70;;;;;;5080003;28;20118;-82
2021/01/15 08:34:14;;;;;;;33.75;18.00;;;1.40;91.00;;;;;;5106837;28;20036;-81
2021/01/15 08:37:01;;;;;;;30.88;18.17;;;1.40;90.80;;;;;;5112967;28;20024;-82
2021/01/15 08:39:27;;;;;;;30.67;18.77;;;1.40;90.80;;;;;;5082572;28;20035;-82
2021/01/15 08:41:59;;;;;;;32.63;18.92;;;1.40;90.70;;;;;;5062786;28;20028;-82
2021/01/15 08:44:34;;;;;;;30.27;18.40;;;1.50;90.70;;;;;;5094701;28;20028;-81
2021/01/15 08:47:03;;;;;;;27.27;17.60;;;1.50;90.70;;;;;;5092924;28;20031;-82
2021/01/15 08:49:29;;;;;;;28.75;17.77;;;1.50;90.70;;;;;;5085996;28;20028;-81
2021/01/15 08:51:58;;;;;;;30.73;18.63;;;1.50;90.70;;;;;;5086439;28;20481;-77
2021/01/15 08:54:24;;;;;;;;;;;1.50;90.70;;;;;;5094583;28;20024;-79
2021/01/15 08:56:50;;;;;;;32.65;19.38;;;1.50;90.60;;;;;;5092291;28;20391;-79
2021/01/15 08:59:30;;;;;;;29.40;18.88;;;1.50;90.70;;;;;;5096021;28;20043;-80
2021/01/15 09:02:01;;;;;;;30.20;19.40;;;1.50;90.70;;;;;;5075736;28;20032;-79
2021/01/15 09:04:29;;;;;;;31.50;18.20;;;1.50;90.70;;;;;;5093959;28;20107;-78
2021/01/15 09:06:57;;;;;;;35.55;21.90;;;1.60;90.70;;;;;;5093887;28;20063;-80
2021/01/15 09:09:24;;;;;;;37.25;21.63;;;1.60;90.70;;;;;;5093758;28;20021;-78
2021/01/15 09:11:52;;;;;;;33.85;21.45;;;1.50;90.70;;;;;;5071836;28;20024;-79
2021/01/15 09:14:23;;;;;;;33.95;21.20;;;1.50;90.70;;;;;;5074358;28;20029;-79
2021/01/15 09:16:50;;;;;;;36.58;21.55;;;1.50;90.70;;;;;;5092046;28;20028;-78
2021/01/15 09:19:16;;;;;;;32.92;21.45;;;1.50;90.70;;;;;;5092038;28;20036;-78
2021/01/15 09:21:52;;;;;;;34.10;22.08;;;1.60;90.80;;;;;;5093250;28;20107;-79
2021/01/15 09:24:20;;;;;;;42.05;24.65;;;1.60;90.80;;;;;;5071707;28;20060;-80
2021/01/15 09:26:46;;;;;;;35.95;22.05;;;1.60;90.80;;;;;;5093086;28;20053;-78
2021/01/15 09:29:13;;;;;;;41.17;24.10;;;1.60;90.80;;;;;;5102401;27;20065;-79
2021/01/15 09:31:40;;;;;;;38.67;21.25;;;1.60;90.80;;;;;;5134125;27;20027;-78
2021/01/15 09:34:06;;;;;;;38.17;21.60;;;1.70;90.80;;;;;;5111332;28;20040;-78
2021/01/15 09:36:32;;;;;;;41.75;23.75;;;1.70;90.70;;;;;;5096019;28;20070;-78
2021/01/15 09:38:58;;;;;;;34.70;22.10;;;1.70;90.60;;;;;;5118489;28;20530;-77
2021/01/15 09:41:25;;;;;;;41.28;22.73;;;1.70;90.60;;;;;;5134185;28;20075;-78
2021/01/15 09:43:53;;;;;;;46.30;24.70;;;1.70;90.60;;;;;;5129998;27;20111;-78
2021/01/15 09:46:29;;;;;;;41.40;24.95;;;1.60;90.60;;;;;;5116096;28;20020;-77
2021/01/15 09:48:57;;;;;;;46.97;25.63;;;1.70;90.70;;;;;;5117507;28;20106;-77
2021/01/15 09:51:28;;;;;;;43.17;25.30;;;1.70;90.70;;;;;;5111436;28;20068;-78
2021/01/15 09:53:55;;;;;;;45.17;26.73;;;1.70;90.70;;;;;;5114492;28;20038;-78
2021/01/15 09:56:41;;;;;;;48.42;27.80;;;1.70;90.70;;;;;;5101982;28;20387;-77
2021/01/15 09:59:08;;;;;;;42.03;24.98;;;1.70;90.70;;;;;;5127609;27;20046;-78
2021/01/15 10:01:34;;;;;;;42.08;25.15;;;1.70;90.70;;;;;;5117866;28;20484;-77
2021/01/15 10:04:00;;;;;;;36.50;23.10;;;1.70;90.70;;;;;;5099222;28;20023;-77
2021/01/15 10:06:27;;;;;;;40.25;23.80;;;1.80;90.70;;;;;;5099495;28;20475;-77
2021/01/15 10:08:59;;;;;;;41.50;24.92;;;1.80;90.60;;;;;;5118113;27;20439;-77
2021/01/15 10:11:28;;;;;;;41.47;25.40;;;1.80;90.50;;;;;;5120310;27;20027;-77
2021/01/15 10:13:59;;;;;;;42.33;24.30;;;1.80;90.50;;;;;;5133468;27;20024;-77
2021/01/15 10:16:25;;;;;;;43.38;24.95;;;1.80;90.50;;;;;;5098752;28;20503;-77
2021/01/15 10:18:51;;;;;;;37.63;23.33;;;1.80;90.40;;;;;;5125680;27;20056;-77
2021/01/15 10:21:22;;;;;;;39.20;24.70;;;1.90;90.50;;;;;;5098484;28;20028;-77
2021/01/15 10:23:49;;;;;;;39.08;23.02;;;1.90;90.50;;;;;;5106947;27;20020;-77
2021/01/15 10:26:22;;;;;;;40.63;24.23;;;2.00;90.40;;;;;;5136013;27;20094;-77
2021/01/15 10:28:47;;;;;;;38.53;23.27;;;1.90;90.40;;;;;;5136796;27;20108;-76
2021/01/15 10:31:13;;;;;;;41.15;26.55;;;2.00;90.40;;;;;;5137679;27;20027;-77
2021/01/15 10:33:39;;;;;;;41.85;24.17;;;2.00;90.30;;;;;;5102839;27;20035;-80
2021/01/15 10:36:08;;;;;;;39.50;24.33;;;2.00;90.40;;;;;;5083423;27;20058;-75
2021/01/15 10:38:34;;;;;;;40.90;22.98;;;2.20;90.50;;;;;;5100148;27;20035;-80
2021/01/15 10:40:59;;;;;;;37.88;23.20;;;2.30;90.40;;;;;;5137604;27;20444;-81
2021/01/15 10:43:25;;;;;;;36.50;21.80;;;2.50;90.20;;;;;;5119349;27;20034;-81
2021/01/15 10:45:54;;;;;;;32.17;20.73;;;2.60;90.10;;;;;;5137414;27;20462;-80
2021/01/15 10:48:19;;;;;;;31.60;20.57;;;2.70;90.00;;;;;;5100895;27;20023;-81
2021/01/15 10:50:45;;;;;;;31.30;20.75;;;2.80;89.90;;;;;;5118839;27;20042;-81
2021/01/15 10:53:11;;;;;;;32.95;21.23;;;2.90;89.40;;;;;;5118706;27;20062;-81
2021/01/15 10:55:36;;;;;;;35.75;21.65;;;2.90;89.10;;;;;;5137063;27;20029;-81
2021/01/15 10:58:02;;;;;;;38.05;23.80;;;3.00;88.90;;;;;;5137088;27;20062;-81
2021/01/15 11:00:28;;;;;;;36.05;22.02;;;3.10;88.30;;;;;;5118798;27;20474;-80
2021/01/15 11:02:53;;;;;;;31.00;20.05;;;3.10;88.20;;;;;;5102034;27;20495;-81
2021/01/15 11:05:19;;;;;;;31.25;20.17;;;3.10;88.10;;;;;;5101636;27;20035;-80
2021/01/15 11:07:46;;;;;;;29.27;19.17;;;3.20;88.10;;;;;;5136928;27;20023;-80
2021/01/15 11:10:12;;;;;;;31.08;19.42;;;3.20;87.80;;;;;;5100925;27;20030;-80
2021/01/15 11:12:39;;;;;;;30.02;18.63;;;3.30;88.30;;;;;;5136994;27;20019;-80
2021/01/15 11:15:05;;;;;;;27.85;18.15;;;3.30;87.30;;;;;;5118759;27;20033;-81
2021/01/15 11:17:31;;;;;;;29.75;19.48;;;3.30;87.40;;;;;;5101505;27;20034;-81
2021/01/15 11:19:56;;;;;;;30.05;19.08;;;3.30;87.90;;;;;;5111836;28;20028;-81
2021/01/15 11:22:22;;;;;;;31.05;19.48;;;3.30;87.10;;;;;;5085828;28;20035;-81
2021/01/15 11:24:48;;;;;;;32.10;19.70;;;3.30;86.80;;;;;;5115839;28;20379;-77
2021/01/15 11:27:13;;;;;;;32.42;20.13;;;3.30;86.60;;;;;;5116005;28;20032;-77
2021/01/15 11:29:39;;;;;;;35.45;20.05;;;3.30;86.10;;;;;;5104211;28;20070;-77
2021/01/15 11:32:05;;;;;;;27.13;18.02;;;3.20;85.90;;;;;;5097631;28;20035;-77
2021/01/15 11:34:31;;;;;;;27.50;18.70;;;3.10;86.40;;;;;;5115791;28;20042;-75
2021/01/15 11:36:56;;;;;;;30.00;18.90;;;3.10;86.70;;;;;;5083325;28;20546;-75
2021/01/15 11:39:22;;;;;;;28.05;18.20;;;3.00;86.70;;;;;;5104387;28;20039;-75
2021/01/15 11:41:52;;;;;;;28.42;18.15;;;3.10;86.70;;;;;;5115756;28;20076;-75
2021/01/15 11:44:18;;;;;;;28.05;17.33;;;3.10;86.50;;;;;;5115696;27;20039;-75
2021/01/15 11:46:44;;;;;;;30.33;19.30;;;3.10;86.40;;;;;;5115721;28;20020;-75
2021/01/15 11:49:09;;;;;;;31.48;19.25;;;3.10;86.00;;;;;;5084240;28;20065;-76
2021/01/15 11:51:35;;;;;;;27.48;17.98;;;3.10;86.20;;;;;;5114632;28;20066;-77
2021/01/15 11:54:01;;;;;;;26.55;17.02;;;3.10;86.20;;;;;;5114505;28;20046;-77
2021/01/15 11:56:27;;;;;;;33.88;18.23;;;3.10;86.10;;;;;;5097342;28;20034;-77
2021/01/15 11:58:52;;;;;;;30.15;19.63;;;3.10;85.60;;;;;;5087254;28;20028;-78
2021/01/15 12:01:20;;;;;;;34.92;21.20;;;3.10;85.60;;;;;;5096584;28;20394;-77
2021/01/15 12:03:45;;;;;;;35.67;22.23;;;3.10;85.80;;;;;;5097157;28;20032;-77
2021/01/15 12:06:12;;;;;;;41.25;23.98;;;3.10;86.00;;;;;;5097025;28;20031;-76
2021/01/15 12:08:39;;;;;;;39.67;24.02;;;3.10;86.00;;;;;;5114954;28;20024;-76
2021/01/15 12:11:07;;;;;;;39.85;23.33;;;3.00;86.10;;;;;;5115277;28;20027;-76
2021/01/15 12:13:34;;;;;;;35.95;22.73;;;2.90;86.20;;;;;;5096762;28;20023;-76
2021/01/15 12:16:00;;;;;;;36.33;22.42;;;2.90;86.60;;;;;;5114940;27;20016;-76
2021/01/15 12:18:26;;;;;;;281.40;135.07;;;2.90;86.90;;;;;;5097121;28;20363;-76
2021/01/15 12:20:51;;;;;;;180.63;81.65;;;2.90;86.70;;;;;;5115460;27;20080;-75
2021/01/15 12:23:19;;;;;;;87.20;44.75;;;2.80;86.60;;;;;;5119009;27;20499;-75
2021/01/15 12:25:45;;;;;;;92.68;46.40;;;2.90;86.80;;;;;;5096772;28;20024;-76
2021/01/15 12:28:13;;;;;;;97.35;49.47;;;2.90;86.90;;;;;;5096543;28;20024;-76
2021/01/15 12:30:40;;;;;;;114.22;59.33;;;2.90;86.80;;;;;;5130307;27;20043;-75
2021/01/15 12:33:07;;;;;;;52.70;30.77;;;3.00;86.40;;;;;;5135456;27;20031;-76
2021/01/15 12:35:33;;;;;;;45.15;25.25;;;3.00;86.30;;;;;;5121617;27;20544;-76
2021/01/15 12:38:09;;;;;;;41.42;24.45;;;3.00;86.60;;;;;;5098739;28;20050;-76
2021/01/15 12:40:36;;;;;;;37.22;22.85;;;3.00;86.10;;;;;;5119283;27;20479;-76
2021/01/15 12:43:03;;;;;;;37.78;23.38;;;3.00;85.80;;;;;;5116734;27;20490;-76
2021/01/15 12:45:31;;;;;;;40.05;22.33;;;3.00;85.90;;;;;;5123194;27;20098;-75
2021/01/15 12:47:57;;;;;;;35.40;21.92;;;3.00;86.10;;;;;;5096405;28;20024;-75